Time;durP1;ratioP1;P1;durP2;ratioP2;P2;SDS_P1;SDS_P2;PMS_P1;PMS_P2;Temp;Humidity;BMP_temperature;BMP_pressure;BME280_temperature;BME280_humidity;BME280_pressure;Samples;Min_cycle;Max_cycle;Signal;HPM_P1;HPM_P2
2023/12/28 00:00:16;;;;;;;0.30;0.30;;;;;;;9.11;100.00;100737.59;5092067;28;20032;-58
2023/12/28 00:02:41;;;;;;;0.20;0.20;;;;;;;9.06;100.00;100737.47;5092788;28;20487;-57
2023/12/28 00:05:06;;;;;;;0.22;0.22;;;;;;;9.01;100.00;100749.28;5092053;28;20460;-58
2023/12/28 00:07:32;;;;;;;0.20;0.20;;;;;;;8.98;100.00;100740.59;5101817;28;20027;-57
2023/12/28 00:09:57;;;;;;;0.20;0.20;;;;;;;8.96;100.00;100747.38;5098919;28;20016;-58
2023/12/28 00:12:22;;;;;;;0.20;0.20;;;;;;;9.00;100.00;100741.50;5091067;28;20020;-58
2023/12/28 00:14:48;;;;;;;0.20;0.20;;;;;;;8.96;100.00;100747.38;5092123;28;20503;-58
2023/12/28 00:17:14;;;;;;;0.20;0.20;;;;;;;8.96;100.00;100753.41;5106190;28;20036;-58
2023/12/28 00:19:39;;;;;;;0.30;0.30;;;;;;;8.95;100.00;100763.59;5111406;28;20038;-57
2023/12/28 00:22:04;;;;;;;0.20;0.20;;;;;;;8.94;100.00;100756.72;5111992;28;20024;-58
2023/12/28 00:24:29;;;;;;;0.30;0.30;;;;;;;8.89;100.00;100767.72;5112635;28;20027;-57
2023/12/28 00:26:55;;;;;;;0.25;0.25;;;;;;;8.87;100.00;100758.19;5113465;28;20020;-58
2023/12/28 00:29:20;;;;;;;0.28;0.28;;;;;;;8.85;100.00;100765.84;5116296;28;20032;-58
2023/12/28 00:31:45;;;;;;;0.28;0.28;;;;;;;8.85;100.00;100765.00;5116121;28;20111;-57
2023/12/28 00:34:10;;;;;;;0.22;0.22;;;;;;;8.81;100.00;100770.84;5116188;28;20028;-58
2023/12/28 00:36:36;;;;;;;0.30;0.30;;;;;;;8.80;100.00;100767.38;5116721;28;20031;-58
2023/12/28 00:39:01;;;;;;;0.30;0.30;;;;;;;8.77;100.00;100767.28;5116012;28;20027;-58
2023/12/28 00:41:26;;;;;;;0.22;0.22;;;;;;;8.75;100.00;100774.06;5116080;28;20027;-57
2023/12/28 00:43:51;;;;;;;0.20;0.20;;;;;;;8.76;100.00;100780.09;5116394;28;20023;-58
2023/12/28 00:46:17;;;;;;;0.30;0.30;;;;;;;8.74;100.00;100777.47;5115545;28;20425;-58
2023/12/28 00:48:42;;;;;;;0.30;0.30;;;;;;;8.74;100.00;100792.88;5116069;28;20040;-58
2023/12/28 00:51:07;;;;;;;0.30;0.30;;;;;;;8.78;100.00;100783.56;5116325;28;20447;-57
2023/12/28 00:53:33;;;;;;;0.22;0.22;;;;;;;8.75;100.00;100792.03;5115568;28;20487;-58
2023/12/28 00:55:58;;;;;;;0.20;0.20;;;;;;;8.77;100.00;100787.84;5116156;28;20471;-58
2023/12/28 00:58:23;;;;;;;0.30;0.30;;;;;;;8.85;100.00;100800.97;5115907;28;20042;-58
2023/12/28 01:00:48;;;;;;;0.20;0.20;;;;;;;8.84;100.00;100797.50;5115591;28;20470;-57
2023/12/28 01:03:14;;;;;;;0.30;0.30;;;;;;;8.85;100.00;100796.69;5115719;28;20016;-57
2023/12/28 01:05:39;;;;;;;0.20;0.20;;;;;;;8.84;100.00;100797.50;5115978;28;20030;-57
2023/12/28 01:08:05;;;;;;;0.20;0.20;;;;;;;8.83;100.00;100800.94;5115649;28;20037;-58
2023/12/28 01:10:30;;;;;;;0.30;0.30;;;;;;;8.82;100.00;100801.75;5115450;28;20034;-58
2023/12/28 01:12:55;;;;;;;0.30;0.30;;;;;;;8.84;100.00;100809.50;5115673;28;20034;-58
2023/12/28 01:15:21;;;;;;;0.28;0.28;;;;;;;8.83;100.00;100802.59;5114944;28;20024;-58
2023/12/28 01:17:46;;;;;;;0.30;0.30;;;;;;;8.87;100.00;100810.50;5115442;28;20046;-57
2023/12/28 01:20:12;;;;;;;0.30;0.30;;;;;;;8.88;100.00;100811.34;5115038;28;20020;-57
2023/12/28 01:22:37;;;;;;;0.30;0.30;;;;;;;8.89;100.00;100808.81;5115151;28;20031;-57
2023/12/28 01:25:03;;;;;;;0.22;0.22;;;;;;;8.92;100.00;100815.78;5115126;28;20020;-58
2023/12/28 01:27:28;;;;;;;0.20;0.20;;;;;;;8.89;100.00;100816.53;5115282;28;20043;-58
2023/12/28 01:29:53;;;;;;;0.20;0.20;;;;;;;8.88;100.00;100817.38;5114872;28;20435;-58
2023/12/28 01:32:19;;;;;;;0.30;0.30;;;;;;;8.87;100.00;100825.91;5114777;28;20049;-58
2023/12/28 01:34:44;;;;;;;0.30;0.30;;;;;;;8.88;100.00;100817.38;5115565;28;20106;-58
2023/12/28 01:37:10;;;;;;;0.22;0.22;;;;;;;8.87;100.00;100825.91;5114497;28;20016;-58
2023/12/28 01:39:35;;;;;;;0.20;0.20;;;;;;;8.88;100.00;100832.81;5114335;28;20032;-58
2023/12/28 01:42:01;;;;;;;0.30;0.30;;;;;;;8.90;100.00;100835.44;5114974;28;20032;-58
2023/12/28 01:44:26;;;;;;;0.30;0.30;;;;;;;8.90;100.00;100835.44;5113880;28;20381;-58
2023/12/28 01:46:52;;;;;;;0.25;0.25;;;;;;;8.88;100.00;100837.94;5115605;28;20379;-58
2023/12/28 01:49:17;;;;;;;0.20;0.20;;;;;;;8.82;100.00;100829.13;5114460;28;20048;-58
2023/12/28 01:51:44;;;;;;;0.25;0.25;;;;;;;8.85;100.00;100834.38;5114950;28;20093;-58
2023/12/28 01:54:10;;;;;;;0.30;0.30;;;;;;;8.79;100.00;100845.31;5114983;28;20119;-58
2023/12/28 01:56:36;;;;;;;0.30;0.30;;;;;;;8.78;100.00;100841.00;5114410;28;20255;-58
2023/12/28 01:59:01;;;;;;;0.30;0.30;;;;;;;8.76;100.00;100832.34;5114640;28;20063;-58
2023/12/28 02:01:27;;;;;;;0.25;0.25;;;;;;;8.71;100.00;100849.28;5114736;28;20455;-58
2023/12/28 02:03:54;;;;;;;0.20;0.20;;;;;;;8.73;100.00;100837.38;5114581;28;20024;-58
2023/12/28 02:06:23;;;;;;;0.30;0.30;;;;;;;8.73;100.00;100842.53;5113581;28;20023;-58
2023/12/28 02:08:48;;;;;;;0.30;0.30;;;;;;;8.72;100.00;100827.91;5112865;28;20034;-58
2023/12/28 02:11:13;;;;;;;0.30;0.30;;;;;;;8.73;100.00;100834.81;5093334;28;20035;-58
2023/12/28 02:13:39;;;;;;;0.30;0.30;;;;;;;8.73;100.00;100847.66;5093850;28;20474;-58
2023/12/28 02:16:15;;;;;;;0.30;0.30;;;;;;;8.70;100.00;100837.25;5094311;28;20035;-57
2023/12/28 02:18:49;;;;;;;0.20;0.20;;;;;;;8.69;100.00;100830.38;5093091;28;20039;-58
2023/12/28 02:21:16;;;;;;;0.30;0.30;;;;;;;8.73;100.00;100842.53;5092283;28;20071;-58
2023/12/28 02:23:48;;;;;;;0.30;0.30;;;;;;;8.72;100.00;100846.78;5092319;28;20024;-57
2023/12/28 02:26:15;;;;;;;0.30;0.30;;;;;;;8.68;100.00;100829.50;5091845;28;20118;-58
2023/12/28 02:28:40;;;;;;;0.30;0.30;;;;;;;8.63;100.00;100835.28;5092944;28;20476;-57
2023/12/28 02:31:09;;;;;;;0.30;0.30;;;;;;;8.60;100.00;100837.72;5093318;28;20168;-58
2023/12/28 02:33:41;;;;;;;0.30;0.30;;;;;;;8.65;100.00;100823.34;5092124;28;20030;-58
2023/12/28 02:36:10;;;;;;;0.30;0.30;;;;;;;8.66;100.00;100825.13;5092380;28;20067;-57
2023/12/28 02:38:37;;;;;;;0.25;0.25;;;;;;;8.65;100.00;100831.06;5092458;28;20031;-58
2023/12/28 02:41:04;;;;;;;0.30;0.30;;;;;;;8.66;100.00;100819.97;5092714;28;20028;-57
2023/12/28 02:43:29;;;;;;;0.30;0.30;;;;;;;8.65;100.00;100818.22;5093261;28;20024;-58
2023/12/28 02:45:55;;;;;;;0.30;0.30;;;;;;;8.66;100.00;100822.56;5092919;28;20085;-57
2023/12/28 02:48:20;;;;;;;0.20;0.20;;;;;;;8.63;100.00;100823.31;5092494;28;20415;-58
2023/12/28 02:50:46;;;;;;;0.20;0.20;;;;;;;8.65;100.00;100813.97;5092281;28;20120;-57
2023/12/28 02:53:12;;;;;;;0.28;0.28;;;;;;;8.67;100.00;100839.72;5092300;28;20059;-57
2023/12/28 02:55:37;;;;;;;0.40;0.40;;;;;;;8.72;100.00;100810.78;5092865;28;20028;-57
2023/12/28 02:58:03;;;;;;;0.30;0.30;;;;;;;8.76;100.00;100810.94;5092387;28;20032;-57
2023/12/28 03:00:28;;;;;;;0.30;0.30;;;;;;;8.74;100.00;100798.03;5092222;28;20028;-57
2023/12/28 03:02:54;;;;;;;0.30;0.30;;;;;;;8.71;100.00;100805.59;5093089;28;20096;-57
2023/12/28 03:05:19;;;;;;;0.40;0.40;;;;;;;8.71;100.00;100809.06;5092159;28;20020;-57
2023/12/28 03:07:45;;;;;;;0.30;0.30;;;;;;;8.74;100.00;100792.88;5091717;28;20177;-58
2023/12/28 03:10:11;;;;;;;0.30;0.30;;;;;;;8.72;100.00;100797.94;5092408;28;20482;-57
2023/12/28 03:12:36;;;;;;;0.30;0.30;;;;;;;8.81;100.00;100794.84;5093015;28;20036;-58
2023/12/28 03:15:02;;;;;;;0.30;0.30;;;;;;;8.82;100.00;100793.13;5090935;28;20024;-58
2023/12/28 03:17:28;;;;;;;0.30;0.30;;;;;;;8.76;100.00;100798.94;5091909;28;20035;-57
2023/12/28 03:19:54;;;;;;;0.40;0.40;;;;;;;8.76;100.00;100801.50;5092952;28;20040;-58
2023/12/28 03:22:19;;;;;;;0.30;0.30;;;;;;;8.82;100.00;100805.97;5092029;28;20165;-57
2023/12/28 03:24:45;;;;;;;0.30;0.30;;;;;;;8.83;100.00;100812.88;5092653;28;20065;-58
2023/12/28 03:27:11;;;;;;;0.30;0.30;;;;;;;8.88;100.00;100799.41;5092842;28;20095;-58
2023/12/28 03:29:36;;;;;;;0.30;0.30;;;;;;;8.99;100.00;100822.91;5092307;28;20062;-58
2023/12/28 03:32:02;;;;;;;0.30;0.30;;;;;;;9.02;100.00;100828.13;5093058;28;20024;-58
2023/12/28 03:34:29;;;;;;;0.30;0.30;;;;;;;9.04;100.00;100829.06;5092702;28;20016;-57
2023/12/28 03:36:54;;;;;;;0.30;0.30;;;;;;;9.07;100.00;100828.31;5092196;28;20123;-58
2023/12/28 03:39:20;;;;;;;0.30;0.30;;;;;;;9.04;100.00;100835.94;5098587;28;20383;-58
2023/12/28 03:41:45;;;;;;;0.28;0.28;;;;;;;9.02;100.00;100832.41;5095508;28;20494;-58
2023/12/28 03:44:10;;;;;;;0.30;0.30;;;;;;;9.00;100.00;100828.91;5111474;28;20020;-57
2023/12/28 03:46:35;;;;;;;0.30;0.30;;;;;;;9.02;100.00;100823.00;5111728;28;20468;-57
2023/12/28 03:49:01;;;;;;;0.20;0.20;;;;;;;9.06;100.00;100813.69;5110845;28;20065;-57
2023/12/28 03:51:26;;;;;;;0.30;0.30;;;;;;;9.06;100.00;100812.03;5110017;28;20042;-59
2023/12/28 03:53:51;;;;;;;0.30;0.30;;;;;;;9.11;100.00;100814.75;5111743;28;20028;-58
2023/12/28 03:56:26;;;;;;;0.30;0.30;;;;;;;9.15;100.00;100814.00;5111933;28;20027;-58
2023/12/28 03:58:52;;;;;;;0.30;0.30;;;;;;;9.16;100.00;100805.47;5112596;28;20415;-58
2023/12/28 04:01:19;;;;;;;0.30;0.30;;;;;;;9.16;100.00;100796.91;5113610;28;20027;-58
2023/12/28 04:03:44;;;;;;;0.30;0.30;;;;;;;9.18;100.00;100795.25;5119243;28;20407;-58
2023/12/28 04:06:10;;;;;;;0.30;0.30;;;;;;;9.21;100.00;100811.66;5119055;28;20030;-58
2023/12/28 04:08:35;;;;;;;0.30;0.30;;;;;;;9.17;100.00;100817.53;5119682;28;20120;-58
2023/12/28 04:11:00;;;;;;;0.20;0.20;;;;;;;9.18;100.00;100806.44;5119303;28;20066;-58
2023/12/28 04:13:26;;;;;;;0.25;0.25;;;;;;;9.25;100.00;100812.66;5119143;28;20030;-58
2023/12/28 04:15:51;;;;;;;0.30;0.30;;;;;;;9.31;100.00;100819.69;5119808;28;20035;-58
2023/12/28 04:18:16;;;;;;;0.30;0.30;;;;;;;9.27;100.00;100820.41;5118605;28;20031;-58
2023/12/28 04:20:44;;;;;;;0.30;0.30;;;;;;;9.21;100.00;100818.50;5119347;28;20023;-57
2023/12/28 04:23:10;;;;;;;0.20;0.20;;;;;;;9.22;100.00;100818.56;5119068;28;20080;-58
2023/12/28 04:25:35;;;;;;;0.30;0.30;;;;;;;9.23;100.00;100812.59;5119163;28;20019;-58
2023/12/28 04:28:01;;;;;;;0.20;0.20;;;;;;;9.26;100.00;100800.66;5119164;28;20019;-58
2023/12/28 04:30:27;;;;;;;0.30;0.30;;;;;;;9.34;100.00;100806.94;5119314;28;20027;-58
2023/12/28 04:32:52;;;;;;;0.20;0.20;;;;;;;9.39;100.00;100801.13;5118970;28;20068;-57
2023/12/28 04:35:18;;;;;;;0.20;0.20;;;;;;;9.45;100.00;100799.59;5119125;28;20429;-58
2023/12/28 04:37:43;;;;;;;0.25;0.25;;;;;;;9.41;100.00;100824.31;5119564;28;20028;-58
2023/12/28 04:40:09;;;;;;;0.20;0.20;;;;;;;9.37;100.00;100835.34;5118873;28;20421;-58
2023/12/28 04:42:34;;;;;;;0.20;0.20;;;;;;;9.38;100.00;100839.66;5119729;28;20034;-58
2023/12/28 04:44:59;;;;;;;0.30;0.30;;;;;;;9.41;100.00;100818.31;5118172;28;20023;-57
2023/12/28 04:47:24;;;;;;;0.30;0.30;;;;;;;9.44;100.00;100833.84;5118851;28;20039;-57
2023/12/28 04:49:50;;;;;;;0.25;0.25;;;;;;;9.43;100.00;100819.25;5119369;28;20429;-58
2023/12/28 04:52:15;;;;;;;0.22;0.22;;;;;;;9.37;100.00;100822.47;5118492;28;20888;-58
2023/12/28 04:54:40;;;;;;;0.30;0.30;;;;;;;9.40;100.00;100827.75;5119004;28;20024;-58
2023/12/28 04:57:08;;;;;;;0.20;0.20;;;;;;;9.41;100.00;100816.59;5117578;28;20464;-57
2023/12/28 04:59:38;;;;;;;0.30;0.30;;;;;;;9.42;100.00;100817.50;5118505;28;20031;-58
2023/12/28 05:02:03;;;;;;;0.30;0.30;;;;;;;9.44;100.00;100834.75;5119240;28;20030;-58
2023/12/28 05:04:28;;;;;;;0.28;0.28;;;;;;;9.49;100.00;100840.91;5118819;28;20028;-57
2023/12/28 05:06:54;;;;;;;0.20;0.20;;;;;;;9.51;100.00;100840.97;5118731;28;20028;-58
2023/12/28 05:09:19;;;;;;;0.30;0.30;;;;;;;9.55;100.00;100843.69;5118594;28;20030;-58
2023/12/28 05:11:44;;;;;;;0.30;0.30;;;;;;;9.59;100.00;100843.78;5119216;28;20043;-58
2023/12/28 05:14:09;;;;;;;0.30;0.30;;;;;;;9.56;100.00;100850.56;5114897;28;20467;-58
2023/12/28 05:16:35;;;;;;;0.30;0.30;;;;;;;9.60;100.00;100853.25;5115807;28;20076;-58
2023/12/28 05:19:00;;;;;;;0.20;0.20;;;;;;;9.63;100.00;100836.25;5115819;28;20413;-57
2023/12/28 05:21:25;;;;;;;0.20;0.20;;;;;;;9.63;100.00;100835.34;5115141;28;20130;-58
2023/12/28 05:23:50;;;;;;;0.22;0.22;;;;;;;9.54;100.00;100829.06;5115359;28;20031;-57
2023/12/28 05:26:16;;;;;;;0.20;0.20;;;;;;;9.48;100.00;100831.44;5115022;28;20024;-57
2023/12/28 05:28:41;;;;;;;0.20;0.20;;;;;;;9.43;100.00;100830.41;5114981;28;20030;-58
2023/12/28 05:31:06;;;;;;;0.25;0.25;;;;;;;9.36;100.00;100838.72;5115471;28;20026;-58
2023/12/28 05:33:32;;;;;;;0.30;0.30;;;;;;;9.29;100.00;100834.22;5115335;28;20024;-58
2023/12/28 05:35:57;;;;;;;0.30;0.30;;;;;;;9.26;100.00;100836.66;5114769;28;20427;-58
2023/12/28 05:38:22;;;;;;;0.25;0.25;;;;;;;9.25;100.00;100840.94;5114757;28;20126;-58
2023/12/28 05:40:47;;;;;;;0.30;0.30;;;;;;;9.21;100.00;100847.66;5115394;28;20107;-57
2023/12/28 05:43:13;;;;;;;0.30;0.30;;;;;;;9.23;100.00;100846.03;5113909;28;20391;-58
2023/12/28 05:45:38;;;;;;;0.30;0.30;;;;;;;9.29;100.00;100854.78;5115427;28;20468;-58
2023/12/28 05:48:03;;;;;;;0.30;0.30;;;;;;;9.34;100.00;100851.53;5114780;28;20127;-58
2023/12/28 05:50:29;;;;;;;0.30;0.30;;;;;;;9.36;100.00;100846.44;5114057;28;20023;-58
2023/12/28 05:52:54;;;;;;;0.20;0.20;;;;;;;9.37;100.00;100848.19;5115003;28;20024;-58
2023/12/28 05:55:20;;;;;;;0.30;0.30;;;;;;;9.36;100.00;100843.88;5114230;28;20728;-58
2023/12/28 05:57:45;;;;;;;0.30;0.30;;;;;;;9.36;100.00;100833.59;5114288;28;20027;-58
2023/12/28 06:00:11;;;;;;;0.30;0.30;;;;;;;9.39;100.00;100846.56;5114349;28;20019;-58
2023/12/28 06:02:37;;;;;;;0.30;0.30;;;;;;;9.48;100.00;100854.59;5114190;28;20080;-58
2023/12/28 06:05:02;;;;;;;0.20;0.20;;;;;;;9.53;100.00;100860.78;5114616;28;20107;-58
2023/12/28 06:07:27;;;;;;;0.30;0.30;;;;;;;9.55;100.00;100859.13;5114586;28;20027;-58
2023/12/28 06:09:53;;;;;;;0.20;0.20;;;;;;;9.53;100.00;100867.63;5114366;28;20047;-57
2023/12/28 06:12:18;;;;;;;0.30;0.30;;;;;;;9.58;100.00;100867.75;5114007;28;20027;-58
2023/12/28 06:14:43;;;;;;;0.20;0.20;;;;;;;9.61;100.00;100862.75;5114711;28;20032;-58
2023/12/28 06:17:08;;;;;;;0.30;0.30;;;;;;;9.63;100.00;100859.41;5114166;28;20024;-58
2023/12/28 06:19:34;;;;;;;0.30;0.30;;;;;;;9.65;100.00;100864.59;5113805;28;20023;-58
2023/12/28 06:21:59;;;;;;;0.22;0.22;;;;;;;9.69;100.00;100851.00;5114308;28;20084;-57
2023/12/28 06:24:24;;;;;;;0.30;0.30;;;;;;;9.72;100.00;100853.66;5113802;28;20038;-58
2023/12/28 06:26:50;;;;;;;0.30;0.30;;;;;;;9.69;100.00;100859.56;5114619;28;20104;-58
2023/12/28 06:29:16;;;;;;;0.22;0.22;;;;;;;9.72;100.00;100866.53;5114325;28;20378;-58
2023/12/28 06:31:41;;;;;;;0.20;0.20;;;;;;;9.66;100.00;100872.34;5111533;28;20463;-58
2023/12/28 06:34:06;;;;;;;0.30;0.30;;;;;;;9.66;100.00;100877.50;5113967;28;20456;-58
2023/12/28 06:36:32;;;;;;;0.30;0.30;;;;;;;9.70;100.00;100873.34;5114036;28;20028;-58
2023/12/28 06:38:58;;;;;;;0.20;0.20;;;;;;;9.69;100.00;100863.88;5113927;28;20043;-58
2023/12/28 06:41:27;;;;;;;0.20;0.20;;;;;;;9.70;100.00;100875.91;5113436;28;20463;-58
2023/12/28 06:43:52;;;;;;;0.30;0.30;;;;;;;9.69;100.00;100876.72;5114423;28;20031;-58
2023/12/28 06:46:18;;;;;;;0.20;0.20;;;;;;;9.61;100.00;100889.34;5113137;28;20475;-58
2023/12/28 06:48:44;;;;;;;0.30;0.30;;;;;;;9.56;100.00;100884.03;5113069;28;20044;-58
2023/12/28 06:51:10;;;;;;;0.30;0.30;;;;;;;9.51;100.00;100877.84;5113321;28;20432;-58
2023/12/28 06:53:35;;;;;;;0.30;0.30;;;;;;;9.54;100.00;100882.22;5113383;28;20047;-58
2023/12/28 06:56:01;;;;;;;0.20;0.20;;;;;;;9.53;100.00;100885.63;5114200;28;20020;-59
2023/12/28 06:58:26;;;;;;;0.30;0.30;;;;;;;9.51;100.00;100879.56;5113497;28;20030;-58
2023/12/28 07:00:51;;;;;;;0.30;0.30;;;;;;;9.45;100.00;100864.78;5113252;28;20050;-57
2023/12/28 07:03:17;;;;;;;0.30;0.30;;;;;;;9.41;100.00;100886.06;5113166;28;20031;-58
2023/12/28 07:05:42;;;;;;;0.20;0.20;;;;;;;9.40;100.00;100892.06;5113152;28;20019;-58
2023/12/28 07:08:07;;;;;;;0.30;0.30;;;;;;;9.41;100.00;100891.19;5113462;28;20023;-58
2023/12/28 07:10:33;;;;;;;0.20;0.20;;;;;;;9.36;100.00;100892.75;5113651;28;20140;-59
2023/12/28 07:12:58;;;;;;;0.30;0.30;;;;;;;9.37;100.00;100884.22;5113215;28;20069;-58
2023/12/28 07:15:23;;;;;;;0.30;0.30;;;;;;;9.37;100.00;100889.34;5113068;28;20115;-58
2023/12/28 07:17:48;;;;;;;0.20;0.20;;;;;;;9.39;100.00;100892.88;5113605;28;20081;-58
2023/12/28 07:20:14;;;;;;;0.20;0.20;;;;;;;9.39;100.00;100909.16;5112637;28;20024;-58
2023/12/28 07:22:39;;;;;;;0.20;0.20;;;;;;;9.40;100.00;100910.06;5113317;28;20107;-58
2023/12/28 07:25:06;;;;;;;0.30;0.30;;;;;;;9.40;100.00;100915.19;5113617;28;20099;-58
2023/12/28 07:27:32;;;;;;;0.20;0.20;;;;;;;9.38;100.00;100916.84;5112649;28;20027;-58
2023/12/28 07:29:57;;;;;;;0.30;0.30;;;;;;;9.38;100.00;100911.69;5113237;28;20029;-58
2023/12/28 07:32:25;;;;;;;0.30;0.30;;;;;;;9.43;100.00;100917.88;5112960;28;20028;-58
2023/12/28 07:34:52;;;;;;;0.28;0.28;;;;;;;9.43;100.00;100915.31;5112076;28;20378;-58
2023/12/28 07:37:17;;;;;;;0.28;0.28;;;;;;;9.43;100.00;100917.88;5112146;28;20126;-58
2023/12/28 07:39:42;;;;;;;0.30;0.30;;;;;;;9.45;100.00;100928.22;5113104;28;20088;-58
2023/12/28 07:42:08;;;;;;;0.30;0.30;;;;;;;9.44;100.00;100931.59;5112578;28;20494;-58
2023/12/28 07:44:33;;;;;;;0.30;0.30;;;;;;;9.37;100.00;100923.69;5112805;28;20080;-59
2023/12/28 07:46:58;;;;;;;0.30;0.30;;;;;;;9.36;100.00;100949.31;5112974;28;20032;-58
2023/12/28 07:49:23;;;;;;;0.20;0.20;;;;;;;9.32;100.00;100930.38;5111825;28;20131;-58
2023/12/28 07:51:49;;;;;;;0.30;0.30;;;;;;;9.31;100.00;100948.28;5113083;28;20042;-58
2023/12/28 07:54:14;;;;;;;0.30;0.30;;;;;;;9.33;100.00;100949.22;5112684;28;20062;-59
2023/12/28 07:56:40;;;;;;;0.30;0.30;;;;;;;9.36;100.00;100944.19;5112367;28;20042;-58
2023/12/28 07:59:06;;;;;;;0.30;0.30;;;;;;;9.37;100.00;100951.97;5112916;28;20111;-58
2023/12/28 08:01:33;;;;;;;0.30;0.30;;;;;;;9.34;100.00;100954.44;5112578;28;20062;-58
2023/12/28 08:03:59;;;;;;;0.20;0.20;;;;;;;9.36;100.00;100949.31;5112368;28;20035;-58
2023/12/28 08:06:24;;;;;;;0.30;0.30;;;;;;;9.36;100.00;100968.22;5112735;28;20269;-58
2023/12/28 08:08:49;;;;;;;0.30;0.30;;;;;;;9.35;100.00;100958.75;5112876;28;20046;-58
2023/12/28 08:11:14;;;;;;;0.30;0.30;;;;;;;9.41;100.00;100964.94;5111662;28;20136;-58
2023/12/28 08:13:40;;;;;;;0.20;0.20;;;;;;;9.40;100.00;100966.66;5112316;28;20028;-58
2023/12/28 08:16:06;;;;;;;0.30;0.30;;;;;;;9.40;100.00;100971.78;5112213;28;20481;-59
2023/12/28 08:18:31;;;;;;;0.25;0.25;;;;;;;9.41;100.00;100970.09;5112339;28;20038;-58
2023/12/28 08:20:56;;;;;;;0.22;0.22;;;;;;;9.39;100.00;100964.91;5112752;28;20028;-59
2023/12/28 08:23:22;;;;;;;0.20;0.20;;;;;;;9.41;100.00;100963.22;5111819;28;20027;-58
2023/12/28 08:25:47;;;;;;;0.28;0.28;;;;;;;9.42;100.00;100962.41;5112683;28;20505;-59
2023/12/28 08:28:12;;;;;;;0.30;0.30;;;;;;;9.46;100.00;100943.69;5111395;28;20020;-58
2023/12/28 08:30:38;;;;;;;0.30;0.30;;;;;;;9.44;100.00;100953.06;5112113;28;20039;-58
2023/12/28 08:33:04;;;;;;;0.30;0.30;;;;;;;9.45;100.00;100948.78;5112096;28;20020;-58
2023/12/28 08:35:29;;;;;;;0.20;0.20;;;;;;;9.48;100.00;100951.50;5112225;28;20042;-58
2023/12/28 08:37:54;;;;;;;0.30;0.30;;;;;;;9.51;100.00;100954.16;5112130;28;20032;-58
2023/12/28 08:40:19;;;;;;;0.20;0.20;;;;;;;9.52;100.00;100955.91;5112101;28;20027;-59
2023/12/28 08:42:45;;;;;;;0.30;0.30;;;;;;;9.52;100.00;100959.34;5112564;28;20380;-59
2023/12/28 08:45:10;;;;;;;0.20;0.20;;;;;;;9.54;100.00;100949.13;5111666;28;20026;-58
2023/12/28 08:47:35;;;;;;;0.22;0.22;;;;;;;9.52;100.00;100964.50;5111890;28;20112;-58
2023/12/28 08:50:01;;;;;;;0.20;0.20;;;;;;;9.51;100.00;100965.31;5115297;28;20030;-58
2023/12/28 08:52:26;;;;;;;0.20;0.20;;;;;;;9.55;100.00;100971.44;5115182;28;20076;-59
2023/12/28 08:54:51;;;;;;;0.30;0.30;;;;;;;9.58;100.00;100978.41;5114163;28;20023;-58
2023/12/28 08:57:17;;;;;;;0.25;0.25;;;;;;;9.59;100.00;100993.03;5114775;28;20024;-58
2023/12/28 08:59:43;;;;;;;0.30;0.30;;;;;;;9.59;100.00;100993.91;5114601;28;20054;-58
2023/12/28 09:02:08;;;;;;;0.20;0.20;;;;;;;9.60;100.00;101003.38;5114633;28;20039;-58
2023/12/28 09:04:33;;;;;;;0.20;0.20;;;;;;;9.59;100.00;101005.91;5115840;28;20094;-58
2023/12/28 09:06:58;;;;;;;0.28;0.28;;;;;;;9.55;100.00;101013.53;5113765;28;20441;-58
2023/12/28 09:09:24;;;;;;;0.30;0.30;;;;;;;9.53;100.00;101014.28;5113339;28;20038;-58
2023/12/28 09:11:49;;;;;;;0.20;0.20;;;;;;;9.52;100.00;100995.38;5093267;28;20116;-58
2023/12/28 09:14:14;;;;;;;0.30;0.30;;;;;;;9.53;100.00;101007.44;5093690;28;20464;-58
2023/12/28 09:16:41;;;;;;;0.25;0.25;;;;;;;9.53;100.00;101010.00;5094297;28;20024;-59
2023/12/28 09:19:07;;;;;;;0.30;0.30;;;;;;;9.54;100.00;101019.47;5094322;28;20110;-58
2023/12/28 09:21:32;;;;;;;0.28;0.28;;;;;;;9.54;100.00;101014.34;5093210;28;20111;-58
2023/12/28 09:23:57;;;;;;;0.30;0.30;;;;;;;9.57;100.00;101003.28;5095112;28;20063;-59
2023/12/28 09:26:23;;;;;;;0.20;0.20;;;;;;;9.59;100.00;101005.91;5094284;28;20028;-58
2023/12/28 09:28:48;;;;;;;0.20;0.20;;;;;;;9.63;100.00;101002.59;5094471;28;20024;-58
2023/12/28 09:31:13;;;;;;;0.30;0.30;;;;;;;9.63;100.00;101015.47;5094455;28;20020;-58
2023/12/28 09:33:38;;;;;;;0.20;0.20;;;;;;;9.64;100.00;101012.94;5094592;28;20464;-58
2023/12/28 09:36:04;;;;;;;0.20;0.20;;;;;;;9.66;100.00;101015.59;5094794;28;20027;-57
2023/12/28 09:38:29;;;;;;;0.30;0.30;;;;;;;9.65;100.00;101021.56;5094813;28;20061;-57
2023/12/28 09:40:58;;;;;;;0.20;0.20;;;;;;;9.65;100.00;101034.44;5094602;28;20032;-57
2023/12/28 09:43:26;;;;;;;0.30;0.30;;;;;;;9.65;100.00;101034.44;5094421;28;20517;-57
2023/12/28 09:45:52;;;;;;;0.20;0.20;;;;;;;9.65;100.00;101034.44;5095066;28;20486;-57
2023/12/28 09:48:19;;;;;;;0.25;0.25;;;;;;;9.66;100.00;101029.34;5093876;28;20054;-57
2023/12/28 09:50:49;;;;;;;0.25;0.25;;;;;;;9.68;100.00;101034.53;5094627;28;20034;-58
2023/12/28 09:53:15;;;;;;;0.30;0.30;;;;;;;9.68;100.00;101055.13;5094328;28;20131;-58
2023/12/28 09:55:40;;;;;;;0.30;0.30;;;;;;;9.70;100.00;101032.91;5093842;28;20433;-57
2023/12/28 09:58:06;;;;;;;0.20;0.20;;;;;;;9.68;100.00;101060.25;5094631;28;20496;-57
2023/12/28 10:00:32;;;;;;;0.30;0.30;;;;;;;9.67;100.00;101058.50;5093350;28;20085;-57
2023/12/28 10:02:57;;;;;;;0.30;0.30;;;;;;;9.68;100.00;101061.16;5093662;28;20051;-57
2023/12/28 10:05:22;;;;;;;0.28;0.28;;;;;;;9.70;100.00;101064.66;5094114;28;20468;-57
2023/12/28 10:07:48;;;;;;;0.20;0.20;;;;;;;9.72;100.00;101072.41;5094152;28;20024;-57
2023/12/28 10:10:14;;;;;;;0.20;0.20;;;;;;;9.74;100.00;101051.91;5093295;28;20020;-58
2023/12/28 10:12:39;;;;;;;0.30;0.30;;;;;;;9.76;100.00;101057.97;5094221;28;20032;-57
2023/12/28 10:15:05;;;;;;;0.25;0.25;;;;;;;9.80;100.00;101054.69;5093965;28;20077;-58
2023/12/28 10:17:37;;;;;;;0.28;0.28;;;;;;;9.84;100.00;101052.28;5104890;28;20374;-57
2023/12/28 10:20:09;;;;;;;0.20;0.20;;;;;;;9.87;100.00;101049.81;5114538;28;20115;-57
2023/12/28 10:22:34;;;;;;;0.20;0.20;;;;;;;9.91;100.00;101058.53;5113824;28;20382;-58
2023/12/28 10:25:01;;;;;;;0.20;0.20;;;;;;;9.91;100.00;101061.09;5114180;28;20471;-57
2023/12/28 10:27:27;;;;;;;0.20;0.20;;;;;;;9.94;100.00;101062.91;5114219;28;20035;-58
2023/12/28 10:29:54;;;;;;;0.30;0.30;;;;;;;9.95;100.00;101052.66;5114029;28;20099;-58
2023/12/28 10:32:20;;;;;;;0.30;0.30;;;;;;;9.96;100.00;101056.13;5113721;28;20024;-58
2023/12/28 10:34:45;;;;;;;0.20;0.20;;;;;;;9.98;100.00;101057.94;5114584;28;20031;-58
2023/12/28 10:37:11;;;;;;;0.30;0.30;;;;;;;9.97;100.00;101045.88;5113279;28;20060;-58
2023/12/28 10:39:42;;;;;;;0.30;0.30;;;;;;;9.99;100.00;101058.78;5113757;28;20023;-58
2023/12/28 10:42:12;;;;;;;0.22;0.22;;;;;;;10.02;100.00;101035.75;5114061;28;20015;-58
2023/12/28 10:44:43;;;;;;;0.30;0.30;;;;;;;9.99;100.00;101031.38;5113399;28;20028;-58
2023/12/28 10:47:17;;;;;;;0.30;0.30;;;;;;;10.01;100.00;101052.00;5113749;28;20402;-59
2023/12/28 10:49:46;;;;;;;0.20;0.20;;;;;;;10.01;100.00;101034.84;5113656;28;20058;-58
2023/12/28 10:52:15;;;;;;;0.20;0.20;;;;;;;10.05;100.00;101043.56;5112689;28;20059;-58
2023/12/28 10:54:57;;;;;;;0.20;0.20;;;;;;;10.09;100.00;101044.56;5113642;28;20023;-58
2023/12/28 10:57:55;;;;;;;0.30;0.30;;;;;;;10.17;100.00;101041.44;5113608;28;20052;-59
2023/12/28 11:00:24;;;;;;;0.20;0.20;;;;;;;10.21;100.00;101032.97;5107713;28;20483;-58
2023/12/28 11:02:53;;;;;;;0.20;0.20;;;;;;;10.26;100.00;101014.22;5113523;28;20023;-58
2023/12/28 11:05:22;;;;;;;0.20;0.20;;;;;;;10.29;100.00;101040.06;5113132;28;20028;-58
2023/12/28 11:07:50;;;;;;;0.20;0.20;;;;;;;10.31;100.00;101029.00;5113529;28;20030;-59
2023/12/28 11:10:16;;;;;;;;;;;;;;;10.42;100.00;101020.78;5113728;28;20118;-58
2023/12/28 11:12:43;;;;;;;0.30;0.30;;;;;;;10.36;100.00;101029.19;5112018;28;19912;-58
2023/12/28 11:15:11;;;;;;;0.20;0.20;;;;;;;10.43;100.00;101023.44;5113544;28;20035;-59
2023/12/28 11:17:37;;;;;;;0.20;0.20;;;;;;;10.49;100.00;101015.00;5113172;28;20035;-58